Time;durP1;ratioP1;P1;durP2;ratioP2;P2;SDS_P1;SDS_P2;PMS_P1;PMS_P2;Temp;Humidity;BMP_temperature;BMP_pressure;BME280_temperature;BME280_humidity;BME280_pressure;Samples;Min_cycle;Max_cycle;Signal;HPM_P1;HPM_P2
2022/12/03 06:57:40;;;;;;;16.27;8.18;;;;;;;;;;10602583;27;20408;-80
2022/12/03 07:02:43;;;;;;;21.73;10.00;;;;;;;;;;10608089;28;20033;-80
2022/12/03 07:07:54;;;;;;;17.90;9.20;;;;;;;;;;10581858;28;20107;-80
2022/12/03 07:12:58;;;;;;;13.23;7.13;;;;;;;;;;10580697;28;20032;-80
2022/12/03 07:18:22;;;;;;;12.48;6.88;;;;;;;;;;10581112;28;20264;-80
2022/12/03 07:23:48;;;;;;;18.50;10.65;;;;;;;;;;10597101;28;20104;-80
2022/12/03 07:28:55;;;;;;;15.43;9.35;;;;;;;;;;10606102;28;20099;-80
2022/12/03 07:33:59;;;;;;;12.50;7.53;;;;;;;;;;10606791;28;20020;-80
2022/12/03 07:39:00;;;;;;;11.63;7.20;;;;;;;;;;10604937;28;20031;-80
2022/12/03 07:44:03;;;;;;;12.13;7.75;;;;;;;;;;10623693;28;20026;-80
2022/12/03 07:49:15;;;;;;;;;;;;;;;;;;;;;
2022/12/03 07:54:26;;;;;;;16.85;10.23;;;;;;;;;;10624055;28;20038;-81
2022/12/03 07:59:30;;;;;;;13.00;8.55;;;;;;;;;;10595239;28;20088;-80
2022/12/03 08:05:32;;;;;;;;;;;;;;;;;;;;;
2022/12/03 08:10:31;;;;;;;;;;;;;;;;;;10614377;28;20047;-80
2022/12/03 08:16:00;;;;;;;17.55;10.30;;;;;;;;;;10577002;28;19914;-80
2022/12/03 08:21:01;;;;;;;16.58;9.75;;;;;;;;;;10576146;28;20023;-80
2022/12/03 08:26:06;;;;;;;16.63;10.27;;;;;;;;;;10582985;28;20031;-79
2022/12/03 08:31:22;;;;;;;17.45;11.00;;;;;;;;;;10598566;28;20243;-80
2022/12/03 08:36:29;;;;;;;20.38;13.88;;;;;;;;;;10599549;28;20027;-81
2022/12/03 08:47:01;;;;;;;17.65;11.90;;;;;;;;;;10597666;28;20027;-80
2022/12/03 08:52:10;;;;;;;17.48;12.38;;;;;;;;;;10578476;28;20020;-81
2022/12/03 08:57:30;;;;;;;16.58;10.90;;;;;;;;;;10604125;28;20020;-80
2022/12/03 09:02:32;;;;;;;17.15;10.43;;;;;;;;;;10589946;28;20055;-80
2022/12/03 09:07:33;;;;;;;16.15;11.25;;;;;;;;;;10589999;28;20095;-79
2022/12/03 09:12:34;;;;;;;15.65;10.05;;;;;;;;;;10589992;28;20028;-79
2022/12/03 09:17:35;;;;;;;17.20;11.85;;;;;;;;;;10585721;28;20058;-80
2022/12/03 09:22:36;;;;;;;;;;;;;;;;;;10577107;28;20471;-81
2022/12/03 09:27:37;;;;;;;15.52;10.88;;;;;;;;;;10577246;28;19914;-81
2022/12/03 09:32:39;;;;;;;;;;;;;;;;;;10576898;28;20081;-80
2022/12/03 09:37:40;;;;;;;17.05;11.63;;;;;;;;;;10574502;28;19904;-80
2022/12/03 09:42:41;;;;;;;;;;;;;;;;;;10574553;28;20065;-81
2022/12/03 09:47:47;;;;;;;15.10;10.75;;;;;;;;;;10572625;28;19949;-79
2022/12/03 09:52:49;;;;;;;16.40;10.95;;;;;;;;;;10591516;28;20579;-81
2022/12/03 09:57:51;;;;;;;16.88;10.10;;;;;;;;;;10574076;28;20034;-80
2022/12/03 10:02:53;;;;;;;17.52;12.18;;;;;;;;;;10593302;28;20036;-81
2022/12/03 10:07:56;;;;;;;17.02;10.43;;;;;;;;;;10572135;28;20060;-80
2022/12/03 10:12:57;;;;;;;14.25;10.05;;;;;;;;;;10593572;28;20039;-83
2022/12/03 10:18:00;;;;;;;14.85;9.85;;;;;;;;;;10596167;28;20032;-83
2022/12/03 10:23:01;;;;;;;16.38;10.02;;;;;;;;;;10576973;28;20020;-82
2022/12/03 10:28:03;;;;;;;18.25;11.07;;;;;;;;;;10575985;28;20106;-82
2022/12/03 10:33:12;;;;;;;14.75;8.95;;;;;;;;;;10593108;28;20066;-82
2022/12/03 10:38:17;;;;;;;14.57;9.05;;;;;;;;;;10574479;28;20045;-80
2022/12/03 10:43:18;;;;;;;22.25;13.45;;;;;;;;;;10595375;28;20063;-82
2022/12/03 10:48:20;;;;;;;15.55;10.30;;;;;;;;;;10574812;28;20526;-81
2022/12/03 10:53:23;;;;;;;16.45;10.55;;;;;;;;;;10593299;28;20039;-81
2022/12/03 10:58:33;;;;;;;18.02;10.73;;;;;;;;;;10574059;28;20268;-82
2022/12/03 11:03:35;;;;;;;15.83;9.93;;;;;;;;;;10575753;28;20089;-84
2022/12/03 11:08:36;;;;;;;21.58;14.18;;;;;;;;;;10583519;28;20127;-81
2022/12/03 11:13:37;;;;;;;15.80;10.82;;;;;;;;;;10591792;28;20035;-81
2022/12/03 11:18:38;;;;;;;16.02;9.95;;;;;;;;;;10575883;28;20058;-82
2022/12/03 11:23:45;;;;;;;21.67;15.10;;;;;;;;;;10597672;28;20107;-82
2022/12/03 11:28:46;;;;;;;18.10;11.02;;;;;;;;;;10578420;28;20119;-82
2022/12/03 11:33:47;;;;;;;14.60;9.90;;;;;;;;;;10578087;28;20042;-82
2022/12/03 11:38:53;;;;;;;16.52;10.98;;;;;;;;;;10576806;28;20031;-81
2022/12/03 11:43:55;;;;;;;14.18;9.68;;;;;;;;;;10583494;28;20031;-81
2022/12/03 11:48:58;;;;;;;15.38;9.77;;;;;;;;;;10584583;28;20024;-81
2022/12/03 11:54:00;;;;;;;15.40;9.38;;;;;;;;;;10586530;28;20502;-81
2022/12/03 11:59:02;;;;;;;18.58;11.85;;;;;;;;;;10603486;28;20160;-81
2022/12/03 12:04:03;;;;;;;15.93;9.88;;;;;;;;;;10584805;28;20072;-81
2022/12/03 12:09:04;;;;;;;;;;;;;;;;;;10598796;28;20152;-80
2022/12/03 12:14:09;;;;;;;15.02;9.18;;;;;;;;;;10580217;28;19977;-81
2022/12/03 12:19:29;;;;;;;27.52;16.95;;;;;;;;;;10577756;28;20027;-81
2022/12/03 12:24:40;;;;;;;23.30;14.80;;;;;;;;;;10576100;28;20031;-80
2022/12/03 12:29:42;;;;;;;21.63;11.95;;;;;;;;;;10580203;28;20024;-81
2022/12/03 12:34:47;;;;;;;16.45;10.15;;;;;;;;;;10580511;28;20363;-80
2022/12/03 12:39:51;;;;;;;15.32;10.43;;;;;;;;;;10583361;28;20040;-80
2022/12/03 12:44:53;;;;;;;18.52;11.98;;;;;;;;;;10599895;28;20469;-80
2022/12/03 12:49:55;;;;;;;21.35;13.10;;;;;;;;;;10615359;28;20024;-79
2022/12/03 12:54:56;;;;;;;18.48;11.98;;;;;;;;;;10598611;28;20028;-81
2022/12/03 12:59:57;;;;;;;19.58;13.45;;;;;;;;;;10593789;28;20050;-80
2022/12/03 13:05:00;;;;;;;15.23;9.75;;;;;;;;;;10614898;28;20042;-79
2022/12/03 13:10:19;;;;;;;15.50;10.15;;;;;;;;;;10623175;28;20027;-79
2022/12/03 13:15:32;;;;;;;16.00;9.52;;;;;;;;;;10602018;28;20020;-79
2022/12/03 13:20:33;;;;;;;25.48;16.88;;;;;;;;;;10596862;28;20049;-78
2022/12/03 13:25:37;;;;;;;16.10;10.77;;;;;;;;;;10594586;28;20031;-78
2022/12/03 13:30:38;;;;;;;15.63;9.35;;;;;;;;;;10594572;28;20059;-78
2022/12/03 13:35:41;;;;;;;16.23;10.00;;;;;;;;;;10590258;28;20027;-79
2022/12/03 13:40:43;;;;;;;14.48;9.20;;;;;;;;;;10589106;28;20028;-79
2022/12/03 13:45:44;;;;;;;;;;;;;;;;;;10607995;28;20050;-80
2022/12/03 13:50:45;;;;;;;13.82;9.88;;;;;;;;;;10542041;22;20314;-85
2022/12/03 13:55:48;;;;;;;16.20;8.77;;;;;;;;;;10496919;28;20029;-84
2022/12/03 14:00:49;;;;;;;14.32;9.10;;;;;;;;;;10495145;28;20031;-84
2022/12/03 14:05:51;;;;;;;16.45;11.00;;;;;;;;;;10495806;28;20084;-85
2022/12/03 14:10:52;;;;;;;14.15;9.35;;;;;;;;;;10495890;28;20473;-84
2022/12/03 14:15:53;;;;;;;15.60;8.75;;;;;;;;;;10494409;28;20028;-85
2022/12/03 14:20:54;;;;;;;18.70;10.75;;;;;;;;;;10494819;28;20032;-84
2022/12/03 14:26:15;;;;;;;13.80;8.85;;;;;;;;;;10497955;28;20540;-84
2022/12/03 14:31:16;;;;;;;17.52;11.55;;;;;;;;;;10495485;28;20044;-84
2022/12/03 14:36:19;;;;;;;13.75;8.93;;;;;;;;;;10497595;28;20111;-85
2022/12/03 14:46:40;;;;;;;16.77;10.63;;;;;;;;;;10515469;28;20045;-84
2022/12/03 14:51:42;;;;;;;16.75;11.32;;;;;;;;;;10512532;28;20033;-83
2022/12/03 14:56:43;;;;;;;12.30;8.82;;;;;;;;;;10493484;28;20474;-84
2022/12/03 15:01:44;;;;;;;16.00;10.38;;;;;;;;;;10493351;28;20086;-84
2022/12/03 15:06:45;;;;;;;;;;;;;;;;;;10491517;28;20033;-83
2022/12/03 15:11:46;;;;;;;24.90;17.10;;;;;;;;;;10492386;28;19915;-83
2022/12/03 15:16:47;;;;;;;15.10;10.40;;;;;;;;;;10514943;28;20446;-82
2022/12/03 15:21:49;;;;;;;14.77;9.48;;;;;;;;;;10517337;28;20063;-83
2022/12/03 15:26:52;;;;;;;13.15;9.50;;;;;;;;;;10498949;28;20056;-83
2022/12/03 15:31:53;;;;;;;13.88;9.48;;;;;;;;;;10498617;28;20124;-83
2022/12/03 15:36:54;;;;;;;13.57;9.10;;;;;;;;;;10498756;28;20051;-83
2022/12/03 15:41:55;;;;;;;14.57;10.18;;;;;;;;;;10498175;28;20055;-83
2022/12/03 15:46:56;;;;;;;;;;;;;;;;;;10497756;28;20024;-84
2022/12/03 15:51:57;;;;;;;16.67;12.13;;;;;;;;;;10497589;28;19914;-83
2022/12/03 15:56:58;;;;;;;14.48;9.55;;;;;;;;;;10498081;28;20472;-83
2022/12/03 16:01:59;;;;;;;14.18;9.43;;;;;;;;;;10498537;28;20055;-83
2022/12/03 16:07:00;;;;;;;16.48;11.10;;;;;;;;;;10497888;28;20032;-83
2022/12/03 16:12:01;;;;;;;14.38;10.18;;;;;;;;;;10499695;28;20063;-83
2022/12/03 16:17:02;;;;;;;15.25;10.48;;;;;;;;;;10499235;28;20028;-83
2022/12/03 16:22:03;;;;;;;12.90;9.73;;;;;;;;;;10498107;28;20025;-83
2022/12/03 16:27:06;;;;;;;12.93;9.13;;;;;;;;;;10494452;28;20036;-83
2022/12/03 16:32:07;;;;;;;42.40;32.88;;;;;;;;;;10496568;28;20470;-83
2022/12/03 16:37:09;;;;;;;10.80;7.35;;;;;;;;;;10500369;28;20051;-83
2022/12/03 16:42:11;;;;;;;15.07;10.30;;;;;;;;;;10517243;28;20032;-83
2022/12/03 16:47:12;;;;;;;16.80;11.77;;;;;;;;;;10501411;28;20497;-86
2022/12/03 17:04:25;;;;;;;;;;;;;;;;;;;;;
2022/12/03 19:25:16;;;;;;;19.42;12.85;;;;;;;;;;10546534;28;20121;-86
2022/12/03 19:30:17;;;;;;;;;;;;;;;;;;10515940;28;20112;-86
2022/12/03 19:51:55;;;;;;;17.35;12.27;;;;;;;;;;10439913;28;20139;-81
2022/12/03 19:56:56;;;;;;;16.60;10.70;;;;;;;;;;10439508;28;20155;-83
2022/12/03 20:01:57;;;;;;;15.35;10.52;;;;;;;;;;10443411;28;20045;-81
2022/12/03 20:06:58;;;;;;;20.92;14.00;;;;;;;;;;10444608;28;20123;-81
2022/12/03 20:11:59;;;;;;;24.60;16.33;;;;;;;;;;10443929;28;20097;-81
2022/12/03 20:17:00;;;;;;;20.08;13.50;;;;;;;;;;10445751;28;20044;-82
